Hartsfield, Pennsylvania
Current Conditions -  °F | °C
As of 11:55 PM on Wednesday 22 Oct 2014 (Local Time) from KN38 Reporting Station
Overcast Overcast  
Wind Chill: 35°   Ceiling: 700
Heat Index: 45°   Visibility: 10mi
Dew Point: 43°   Wind: 25mph
Humidity: 93%   Direction: 360°N
Pressure: 30.03"   Gusts: NA
Location:  41.5669°N, 77.1227°W
Report Text: KN38 230355Z AUTO 36022KT 10SM OVC007 07/06 A3003 RMK AO2
Loading
Personal Weather Stations






























Interactive Weather Map
Tropical Storm Tracking
New forecast layout! Learn more

10-Day Weather Forecast

Advertisements
Track Severe Weather on mobile